KDUA/DUA METAR and TAF weather

Enter ICAO airport designator
Station Type Date Time Source
KDUA METAR 2022/01/29 10:35 UTC NOAA

KDUA 291035Z AUTO 00000KT 10SM CLR M02/M05 A3036 RMK AO2


Station Type Date Time Source
KDUA Decoded METAR 2022/01/29 10:35 UTC NOAA

Durant, Eaker Field Airport, OK, United States (KDUA) 33-56-32N 096-23-40W
Jan 29, 2022 - 05:35 AM EST / 2022.01.29 1035 UTC
Wind: Calm:0
Visibility: 10 mile(s):0
Sky conditions: clear
Temperature: 28 F (-2 C)
Dew Point: 23 F (-5 C)
Relative Humidity: 79%
Pressure (altimeter): 30.36 in. Hg (1028 hPa)
ob: KDUA 291035Z AUTO 00000KT 10SM CLR M02/M05 A3036 RMK AO2
cycle: 10

Station Type Date Time Source
KDUA TAF UTC NOAA

Error!

Example: see airport list